Time;durP1;ratioP1;P1;durP2;ratioP2;P2;SDS_P1;SDS_P2;PMS_P1;PMS_P2;Temp;Humidity;BMP_temperature;BMP_pressure;BME280_temperature;BME280_humidity;BME280_pressure;Samples;Min_cycle;Max_cycle;Signal;HPM_P1;HPM_P2
2023/09/03 00:02:07;;;;;;;12.65;11.32;;;14.80;99.90;;;;;;5044157;28;20044;-89
2023/09/03 00:04:33;;;;;;;11.93;10.75;;;14.70;99.90;;;;;;5044257;28;20123;-89
2023/09/03 00:06:58;;;;;;;11.73;10.52;;;14.60;99.90;;;;;;5042886;28;20124;-88
2023/09/03 00:09:24;;;;;;;11.75;10.55;;;14.60;99.90;;;;;;5044495;28;20067;-89
2023/09/03 00:11:50;;;;;;;13.52;12.10;;;14.50;99.90;;;;;;5040027;28;20045;-90
2023/09/03 00:14:16;;;;;;;12.32;11.13;;;14.50;99.90;;;;;;5043765;28;20634;-88
2023/09/03 00:16:42;;;;;;;12.98;11.77;;;14.50;99.90;;;;;;5045269;28;20044;-88
2023/09/03 00:19:08;;;;;;;12.38;11.25;;;14.40;99.90;;;;;;5050243;28;20048;-87
2023/09/03 00:21:34;;;;;;;13.80;12.45;;;14.40;99.90;;;;;;5045799;28;20033;-90
2023/09/03 00:24:00;;;;;;;12.93;11.68;;;14.40;99.90;;;;;;5049376;28;20067;-89
2023/09/03 00:26:27;;;;;;;13.65;12.45;;;14.50;99.90;;;;;;5054531;28;20069;-85
2023/09/03 00:28:53;;;;;;;14.13;12.73;;;14.40;99.90;;;;;;5057957;28;20163;-87
2023/09/03 00:31:21;;;;;;;13.20;11.88;;;14.40;99.90;;;;;;5057574;28;20512;-87
2023/09/03 00:33:47;;;;;;;10.45;9.55;;;14.40;99.90;;;;;;5056887;28;20061;-89
2023/09/03 00:36:14;;;;;;;11.32;10.05;;;14.40;99.90;;;;;;5051020;28;20090;-87
2023/09/03 00:38:40;;;;;;;11.80;10.70;;;14.40;99.90;;;;;;5050306;28;20514;-90
2023/09/03 00:41:06;;;;;;;12.35;11.23;;;14.30;99.90;;;;;;5051845;28;20542;-88
2023/09/03 00:43:32;;;;;;;13.63;12.25;;;14.30;99.90;;;;;;5050412;28;20131;-89
2023/09/03 00:46:03;;;;;;;14.98;13.63;;;14.20;99.90;;;;;;5052133;28;20042;-88
2023/09/03 00:48:29;;;;;;;13.52;12.32;;;14.20;99.90;;;;;;5048418;28;20059;-88
2023/09/03 00:50:59;;;;;;;14.48;13.07;;;14.20;99.90;;;;;;5047151;28;20049;-87
2023/09/03 00:53:27;;;;;;;14.13;12.48;;;14.20;99.90;;;;;;5039939;28;20045;-88
2023/09/03 00:55:53;;;;;;;12.52;11.23;;;14.20;99.90;;;;;;5040662;28;20040;-89
2023/09/03 00:58:20;;;;;;;11.30;10.30;;;14.20;99.90;;;;;;5045177;28;20440;-90
2023/09/03 01:00:46;;;;;;;13.00;11.63;;;14.20;99.90;;;;;;5043512;28;22879;-88
2023/09/03 01:03:13;;;;;;;11.63;10.43;;;14.20;99.90;;;;;;5048172;28;20798;-88
2023/09/03 01:05:39;;;;;;;17.50;11.02;;;14.10;99.90;;;;;;5048768;28;20057;-88
2023/09/03 01:08:05;;;;;;;10.35;9.38;;;14.10;99.90;;;;;;5055586;28;20373;-88
2023/09/03 01:10:56;;;;;;;8.10;7.30;;;14.00;99.90;;;;;;5049883;28;20041;-89
2023/09/03 01:13:37;;;;;;;10.57;9.13;;;13.90;99.90;;;;;;5047375;28;20049;-89
2023/09/03 01:16:14;;;;;;;11.95;10.85;;;13.80;99.90;;;;;;5041285;28;20041;-90
2023/09/03 01:18:42;;;;;;;11.30;10.30;;;13.80;99.90;;;;;;5047662;28;20056;-88
2023/09/03 01:21:16;;;;;;;13.18;11.88;;;13.70;99.90;;;;;;5043794;28;20041;-88
2023/09/03 01:23:48;;;;;;;11.60;10.40;;;13.70;99.90;;;;;;5042879;28;20104;-88
2023/09/03 01:26:25;;;;;;;11.45;10.25;;;13.80;99.90;;;;;;5049467;28;20037;-89
2023/09/03 01:28:52;;;;;;;12.35;11.25;;;13.70;99.90;;;;;;5040936;28;20041;-87
2023/09/03 01:31:19;;;;;;;12.70;11.38;;;13.80;99.90;;;;;;5050548;28;20045;-89
2023/09/03 01:33:46;;;;;;;11.93;10.82;;;13.80;99.90;;;;;;5051807;28;20037;-89
2023/09/03 01:36:13;;;;;;;12.68;11.57;;;13.80;99.90;;;;;;5046397;28;20045;-88
2023/09/03 01:38:40;;;;;;;11.50;10.40;;;13.90;99.90;;;;;;5044180;28;20064;-89
2023/09/03 01:41:07;;;;;;;11.02;9.93;;;13.90;99.90;;;;;;5049407;28;20381;-89
2023/09/03 01:43:33;;;;;;;11.13;10.02;;;13.90;99.90;;;;;;5046071;28;20060;-87
2023/09/03 01:46:06;;;;;;;11.02;9.85;;;13.90;99.90;;;;;;5044686;28;20072;-89
2023/09/03 01:48:58;;;;;;;10.10;9.05;;;13.90;99.90;;;;;;5049488;28;20087;-89
2023/09/03 01:51:38;;;;;;;9.85;8.85;;;13.90;99.90;;;;;;5037631;28;20055;-88
2023/09/03 01:54:18;;;;;;;9.73;8.82;;;13.80;99.90;;;;;;5066461;28;20077;-88
2023/09/03 01:56:53;;;;;;;10.65;9.70;;;13.80;99.90;;;;;;5049194;28;20048;-88
2023/09/03 01:59:20;;;;;;;12.27;11.02;;;13.80;99.90;;;;;;5050054;28;20055;-88
2023/09/03 02:01:50;;;;;;;11.53;9.73;;;13.70;99.90;;;;;;5048665;28;20178;-89
2023/09/03 02:04:16;;;;;;;8.02;7.30;;;13.70;99.90;;;;;;5050139;28;20314;-90
2023/09/03 02:06:46;;;;;;;6.50;5.85;;;13.70;99.90;;;;;;5043079;28;20053;-92
2023/09/03 02:09:12;;;;;;;6.50;5.90;;;13.60;99.90;;;;;;5043355;28;20067;-89
2023/09/03 02:11:38;;;;;;;7.05;6.32;;;13.60;99.90;;;;;;5046279;28;20536;-89
2023/09/03 02:14:03;;;;;;;8.32;7.53;;;13.50;99.90;;;;;;5046780;28;20049;-88
2023/09/03 02:16:29;;;;;;;8.43;7.57;;;13.50;99.90;;;;;;5047586;28;20129;-90
2023/09/03 02:18:55;;;;;;;8.23;7.43;;;13.40;99.90;;;;;;5048834;28;20116;-89
2023/09/03 02:21:21;;;;;;;8.50;7.70;;;13.40;99.90;;;;;;5045598;28;20120;-88
2023/09/03 02:23:46;;;;;;;8.38;7.38;;;13.30;99.90;;;;;;5044072;28;20033;-88
2023/09/03 02:26:12;;;;;;;8.32;7.63;;;13.30;99.90;;;;;;5044643;28;20041;-87
2023/09/03 02:28:39;;;;;;;7.72;7.03;;;13.30;99.90;;;;;;5032712;28;20392;-89
2023/09/03 02:31:05;;;;;;;7.40;6.75;;;13.30;99.90;;;;;;5043721;28;20060;-89
2023/09/03 02:33:31;;;;;;;10.38;8.30;;;13.30;99.90;;;;;;5049591;28;20037;-89
2023/09/03 02:35:57;;;;;;;21.33;9.98;;;13.30;99.90;;;;;;5041968;28;20041;-89
2023/09/03 02:38:22;;;;;;;12.45;11.15;;;13.30;99.90;;;;;;5049173;28;20091;-89
2023/09/03 02:40:48;;;;;;;18.15;10.82;;;13.30;99.90;;;;;;5045270;28;20060;-89
2023/09/03 02:43:14;;;;;;;17.88;10.27;;;13.30;99.90;;;;;;5050392;28;20049;-88
2023/09/03 02:45:40;;;;;;;11.70;10.50;;;13.30;99.90;;;;;;5042194;28;20044;-88
2023/09/03 02:48:10;;;;;;;11.02;10.02;;;13.20;99.90;;;;;;5039226;28;20300;-90
2023/09/03 02:50:36;;;;;;;11.57;10.38;;;13.30;99.90;;;;;;5041624;28;20042;-89
2023/09/03 02:53:04;;;;;;;72.72;12.88;;;13.20;99.90;;;;;;5044464;28;20396;-88
2023/09/03 02:55:30;;;;;;;24.02;11.02;;;13.20;99.90;;;;;;5045044;28;20134;-87
2023/09/03 02:57:56;;;;;;;31.02;11.65;;;13.20;99.90;;;;;;5047712;28;20408;-88
2023/09/03 03:00:23;;;;;;;11.77;9.18;;;13.10;99.90;;;;;;5049693;28;20040;-88
2023/09/03 03:02:49;;;;;;;9.95;9.05;;;13.10;99.90;;;;;;5047270;28;20045;-87
2023/09/03 03:05:15;;;;;;;10.15;9.13;;;13.00;99.90;;;;;;5046890;28;20100;-90
2023/09/03 03:07:42;;;;;;;11.45;10.18;;;13.00;99.90;;;;;;5046526;28;20099;-88
2023/09/03 03:10:09;;;;;;;10.30;9.30;;;13.10;99.90;;;;;;5039143;28;20052;-91
2023/09/03 03:12:34;;;;;;;10.80;9.27;;;13.10;99.90;;;;;;5041354;28;20401;-88
2023/09/03 03:15:00;;;;;;;10.65;9.52;;;13.10;99.90;;;;;;5043559;28;20050;-87
2023/09/03 03:17:26;;;;;;;11.20;9.98;;;13.20;99.90;;;;;;5043006;28;20057;-89
2023/09/03 03:19:52;;;;;;;9.75;8.85;;;13.20;99.90;;;;;;5034747;28;20079;-90
2023/09/03 03:22:18;;;;;;;10.07;8.50;;;13.20;99.90;;;;;;5046040;28;20037;-89
2023/09/03 03:24:43;;;;;;;9.55;8.65;;;13.20;99.90;;;;;;5046831;28;20098;-89
2023/09/03 03:27:09;;;;;;;9.13;8.23;;;13.20;99.90;;;;;;5048072;28;20400;-89
2023/09/03 03:29:35;;;;;;;8.15;7.35;;;13.20;99.90;;;;;;5042360;28;20052;-87
2023/09/03 03:32:01;;;;;;;9.05;8.15;;;13.10;99.90;;;;;;5042858;28;20033;-89
2023/09/03 03:34:27;;;;;;;9.27;8.38;;;13.10;99.90;;;;;;5046878;28;20041;-89
2023/09/03 03:36:56;;;;;;;10.18;9.27;;;13.10;99.90;;;;;;5049571;28;20040;-88
2023/09/03 03:39:21;;;;;;;11.07;10.05;;;13.10;99.90;;;;;;5048995;28;20057;-88
2023/09/03 03:41:47;;;;;;;12.18;10.98;;;13.00;99.90;;;;;;5048981;28;20030;-89
2023/09/03 03:44:13;;;;;;;11.70;10.35;;;13.00;99.90;;;;;;5046341;28;20162;-87
2023/09/03 03:46:39;;;;;;;11.13;9.98;;;13.00;99.90;;;;;;5046677;28;20106;-87
2023/09/03 03:49:04;;;;;;;10.93;10.00;;;12.90;99.90;;;;;;5043260;28;20120;-88
2023/09/03 03:51:31;;;;;;;10.93;9.90;;;12.90;99.90;;;;;;5036612;28;20037;-86
2023/09/03 03:53:59;;;;;;;12.00;10.10;;;12.90;99.90;;;;;;5047945;28;20052;-87
2023/09/03 03:56:24;;;;;;;11.93;8.90;;;12.90;99.90;;;;;;5040983;28;20041;-86
2023/09/03 03:58:50;;;;;;;7.50;5.93;;;12.80;99.90;;;;;;5047662;28;20048;-87
2023/09/03 04:01:23;;;;;;;7.68;6.88;;;12.80;99.90;;;;;;5047015;28;20041;-88
2023/09/03 04:03:50;;;;;;;8.43;7.63;;;12.70;99.90;;;;;;5043666;28;20045;-88
2023/09/03 04:06:16;;;;;;;9.73;8.75;;;12.70;99.90;;;;;;5043887;28;20048;-87
2023/09/03 04:08:43;;;;;;;9.63;8.73;;;12.70;99.90;;;;;;5046965;28;20041;-88
2023/09/03 04:11:10;;;;;;;8.45;7.55;;;12.70;99.90;;;;;;5048201;28;20730;-86
2023/09/03 04:13:37;;;;;;;9.48;8.13;;;12.60;99.90;;;;;;5037703;28;20117;-89
2023/09/03 04:16:08;;;;;;;9.82;7.13;;;12.60;99.90;;;;;;5045125;28;20484;-87
2023/09/03 04:18:34;;;;;;;7.60;6.80;;;12.60;99.90;;;;;;5046606;28;20040;-88
2023/09/03 04:21:00;;;;;;;9.60;7.78;;;12.60;99.90;;;;;;5047392;28;20120;-87
2023/09/03 04:23:27;;;;;;;8.70;7.90;;;12.60;99.90;;;;;;5037162;28;20057;-88
2023/09/03 04:25:53;;;;;;;9.13;8.20;;;12.50;99.90;;;;;;5043200;28;20037;-89
2023/09/03 04:28:19;;;;;;;8.70;7.25;;;12.50;99.90;;;;;;5043544;28;20036;-88
2023/09/03 04:30:45;;;;;;;7.78;7.07;;;12.60;99.90;;;;;;5043949;28;20075;-89
2023/09/03 04:33:11;;;;;;;7.82;7.05;;;12.60;99.90;;;;;;5056835;28;20401;-89
2023/09/03 04:35:38;;;;;;;8.00;7.30;;;12.60;99.90;;;;;;5041179;28;20037;-90
2023/09/03 04:38:05;;;;;;;8.53;7.73;;;12.60;99.90;;;;;;5042386;28;20041;-89
2023/09/03 04:40:35;;;;;;;7.82;7.13;;;12.60;99.90;;;;;;5045152;28;20291;-90
2023/09/03 04:43:02;;;;;;;7.43;6.43;;;12.60;99.90;;;;;;5041919;28;20100;-90
2023/09/03 04:45:27;;;;;;;7.10;5.55;;;12.60;99.90;;;;;;5041704;28;20040;-89
2023/09/03 04:47:54;;;;;;;9.05;7.15;;;12.50;99.90;;;;;;5048934;28;20041;-89
2023/09/03 04:50:20;;;;;;;8.40;7.35;;;12.50;99.90;;;;;;5047669;28;20634;-91
2023/09/03 04:52:46;;;;;;;7.68;6.97;;;12.50;99.90;;;;;;5042048;28;20041;-89
2023/09/03 04:55:12;;;;;;;13.20;7.68;;;12.40;99.90;;;;;;5045395;28;20055;-91
2023/09/03 04:57:38;;;;;;;9.68;8.77;;;12.40;99.90;;;;;;5049340;28;20040;-88
2023/09/03 05:00:04;;;;;;;12.98;8.63;;;12.40;99.90;;;;;;5061035;28;20041;-87
2023/09/03 05:02:31;;;;;;;11.55;7.47;;;12.30;99.90;;;;;;5054585;28;20059;-86
2023/09/03 05:04:58;;;;;;;9.97;6.87;;;12.30;99.90;;;;;;5060323;28;20051;-85
2023/09/03 05:07:24;;;;;;;7.07;6.38;;;12.30;99.90;;;;;;5053993;28;20103;-86
2023/09/03 05:09:53;;;;;;;7.65;6.93;;;12.30;99.90;;;;;;5047654;28;20048;-88
2023/09/03 05:12:19;;;;;;;7.55;6.85;;;12.30;99.90;;;;;;5052882;28;20580;-89
2023/09/03 05:14:45;;;;;;;7.60;6.90;;;12.30;99.90;;;;;;5040165;28;20119;-88
2023/09/03 05:17:11;;;;;;;6.88;6.25;;;12.30;99.90;;;;;;5047910;28;20455;-88
2023/09/03 05:19:38;;;;;;;6.82;6.22;;;12.40;99.90;;;;;;5050673;28;20048;-91
2023/09/03 05:22:03;;;;;;;6.80;6.20;;;12.40;99.90;;;;;;5042412;28;20052;-90
2023/09/03 05:24:29;;;;;;;6.25;5.75;;;12.40;99.90;;;;;;5043695;28;20053;-88
2023/09/03 05:26:55;;;;;;;5.95;5.45;;;12.50;99.90;;;;;;5041542;28;20400;-90
2023/09/03 05:29:21;;;;;;;6.63;5.57;;;12.50;99.90;;;;;;5045728;28;20037;-87
2023/09/03 05:31:47;;;;;;;6.47;5.78;;;12.60;99.90;;;;;;5045193;28;20037;-89
2023/09/03 05:34:12;;;;;;;6.57;5.97;;;12.60;99.90;;;;;;5050393;28;20037;-89
2023/09/03 05:36:39;;;;;;;6.97;6.28;;;12.60;99.90;;;;;;5051792;28;20049;-88
2023/09/03 05:39:04;;;;;;;6.63;6.00;;;12.60;99.90;;;;;;5050053;28;20064;-89
2023/09/03 05:41:31;;;;;;;6.55;5.95;;;12.70;99.90;;;;;;5047533;28;20041;-89
2023/09/03 05:43:57;;;;;;;6.80;6.05;;;12.70;99.90;;;;;;5047387;28;20048;-87
2023/09/03 05:46:24;;;;;;;6.93;6.32;;;12.70;99.90;;;;;;5046774;28;20045;-88
2023/09/03 05:48:50;;;;;;;7.55;6.82;;;12.80;99.90;;;;;;5044385;28;20171;-88
2023/09/03 05:51:16;;;;;;;8.20;7.40;;;12.80;99.90;;;;;;5043545;28;20488;-88
2023/09/03 05:53:42;;;;;;;7.07;6.38;;;12.90;99.90;;;;;;5043175;28;20386;-87
2023/09/03 05:56:10;;;;;;;7.38;5.90;;;12.90;99.90;;;;;;5050152;28;20124;-90
2023/09/03 05:58:37;;;;;;;7.20;6.60;;;13.00;99.90;;;;;;5047788;28;20041;-90
2023/09/03 06:01:07;;;;;;;7.37;6.63;;;13.10;99.90;;;;;;5045321;28;20121;-91
2023/09/03 06:03:33;;;;;;;10.13;9.18;;;13.20;99.90;;;;;;5050105;28;20377;-90
2023/09/03 06:06:10;;;;;;;10.80;9.77;;;13.20;99.90;;;;;;5042600;28;20051;-89
2023/09/03 06:08:36;;;;;;;;;;;13.40;99.90;;;;;;5039526;28;20045;-88
2023/09/03 06:11:03;;;;;;;10.38;9.38;;;13.40;99.90;;;;;;5039040;28;20538;-89
2023/09/03 06:13:31;;;;;;;12.07;10.90;;;13.50;99.90;;;;;;5033097;28;20045;-88
2023/09/03 06:15:57;;;;;;;11.73;10.52;;;13.60;99.90;;;;;;5045199;28;20036;-88
2023/09/03 06:18:24;;;;;;;13.82;12.50;;;13.70;99.90;;;;;;5037677;28;20409;-88
2023/09/03 06:20:50;;;;;;;11.20;9.98;;;13.80;99.90;;;;;;5036690;28;20045;-87
2023/09/03 06:23:20;;;;;;;11.82;10.55;;;13.80;99.90;;;;;;5037673;28;20046;-88
2023/09/03 06:25:47;;;;;;;11.15;10.05;;;13.90;99.90;;;;;;5035526;28;20040;-89
2023/09/03 06:28:13;;;;;;;10.68;9.57;;;14.00;99.90;;;;;;5042665;28;20049;-87
2023/09/03 06:30:39;;;;;;;11.73;10.25;;;14.10;99.90;;;;;;5045229;28;20041;-83
2023/09/03 06:33:05;;;;;;;10.40;9.50;;;14.10;99.90;;;;;;5039647;28;20049;-86
2023/09/03 06:35:30;;;;;;;10.60;9.50;;;14.20;99.90;;;;;;5038023;28;20053;-80
2023/09/03 06:37:57;;;;;;;13.57;10.63;;;14.20;99.90;;;;;;5033967;28;20029;-84
2023/09/03 06:40:23;;;;;;;12.23;10.70;;;14.30;99.90;;;;;;5054864;28;20033;-84
2023/09/03 06:42:50;;;;;;;11.00;9.25;;;14.30;99.90;;;;;;5039428;28;20048;-81
2023/09/03 06:45:17;;;;;;;14.35;10.98;;;14.40;99.90;;;;;;5038866;28;20076;-82
2023/09/03 06:47:43;;;;;;;12.38;11.00;;;14.40;99.90;;;;;;5047345;28;20032;-82
2023/09/03 06:50:09;;;;;;;15.50;11.18;;;14.50;99.90;;;;;;5050986;28;20059;-85
2023/09/03 06:52:35;;;;;;;13.73;12.32;;;14.60;99.90;;;;;;5048548;28;20029;-83
2023/09/03 06:55:01;;;;;;;13.82;11.50;;;14.70;99.90;;;;;;5047792;28;20099;-86
2023/09/03 06:57:27;;;;;;;15.23;12.50;;;14.70;99.90;;;;;;5043567;28;20044;-86
2023/09/03 06:59:53;;;;;;;18.60;13.88;;;14.80;99.90;;;;;;5043389;28;20404;-81
2023/09/03 07:02:19;;;;;;;15.25;13.60;;;14.90;99.90;;;;;;5045077;28;20055;-80
2023/09/03 07:04:44;;;;;;;17.17;13.00;;;15.00;99.90;;;;;;5038961;28;20098;-84
2023/09/03 07:07:11;;;;;;;18.25;13.60;;;15.00;99.90;;;;;;5049547;28;20095;-88
2023/09/03 07:09:37;;;;;;;17.35;12.93;;;15.10;99.90;;;;;;5049546;28;20037;-85
2023/09/03 07:12:03;;;;;;;16.65;13.35;;;15.20;99.90;;;;;;5047006;28;20037;-90
2023/09/03 07:14:33;;;;;;;18.58;13.25;;;15.30;99.90;;;;;;5047723;28;20057;-80
2023/09/03 07:17:00;;;;;;;16.10;13.30;;;15.30;99.90;;;;;;5050481;28;20083;-80
2023/09/03 07:19:27;;;;;;;18.90;14.55;;;15.40;99.90;;;;;;5046139;28;20045;-84
2023/09/03 07:21:52;;;;;;;15.45;13.88;;;15.50;99.90;;;;;;5040623;28;20608;-81
2023/09/03 07:24:18;;;;;;;16.25;13.57;;;15.50;99.90;;;;;;5050117;28;20037;-82
2023/09/03 07:26:44;;;;;;;17.00;14.48;;;15.60;99.90;;;;;;5047520;28;20045;-82
2023/09/03 07:29:10;;;;;;;18.27;14.35;;;15.70;99.90;;;;;;5046933;28;20090;-82
2023/09/03 07:31:40;;;;;;;16.15;14.50;;;15.70;99.90;;;;;;5038433;28;20114;-82
2023/09/03 07:34:07;;;;;;;18.33;14.63;;;15.80;99.90;;;;;;5049557;28;20045;-84
2023/09/03 07:36:33;;;;;;;18.25;14.27;;;15.90;99.90;;;;;;5047313;28;20045;-82
2023/09/03 07:38:59;;;;;;;17.02;14.20;;;16.00;99.90;;;;;;5038904;28;20051;-84
2023/09/03 07:41:24;;;;;;;22.23;13.32;;;16.10;99.90;;;;;;5049198;28;20037;-82
2023/09/03 07:43:51;;;;;;;17.92;12.20;;;16.20;99.90;;;;;;5040541;28;20041;-84
2023/09/03 07:46:18;;;;;;;15.25;12.40;;;16.30;99.90;;;;;;5041968;28;20061;-81
2023/09/03 07:48:44;;;;;;;13.85;11.82;;;16.30;99.90;;;;;;5046101;28;20512;-76
2023/09/03 07:51:09;;;;;;;14.32;12.85;;;16.40;99.90;;;;;;5040467;28;20044;-82
2023/09/03 07:53:36;;;;;;;12.70;11.43;;;16.50;99.90;;;;;;5047914;28;20450;-85
2023/09/03 07:56:02;;;;;;;12.57;10.85;;;16.60;99.90;;;;;;5049268;28;20036;-85
2023/09/03 07:58:28;;;;;;;13.82;12.52;;;16.70;99.90;;;;;;5048507;28;20496;-80
2023/09/03 08:00:54;;;;;;;13.05;11.85;;;16.80;99.90;;;;;;5039980;28;20073;-82
2023/09/03 08:03:20;;;;;;;15.23;13.82;;;16.80;99.90;;;;;;5047380;28;20041;-76
2023/09/03 08:05:46;;;;;;;16.70;15.10;;;16.90;99.90;;;;;;5048117;28;20041;-79
2023/09/03 08:08:11;;;;;;;20.83;18.90;;;17.00;99.90;;;;;;5042746;28;20053;-85
2023/09/03 08:10:37;;;;;;;23.27;21.27;;;17.00;99.90;;;;;;5041612;28;20125;-84
2023/09/03 08:13:03;;;;;;;25.92;23.75;;;17.10;99.90;;;;;;5045643;28;20079;-82
2023/09/03 08:15:29;;;;;;;29.63;27.23;;;17.20;99.90;;;;;;5048363;28;20045;-81
2023/09/03 08:17:54;;;;;;;22.02;20.13;;;17.20;99.90;;;;;;5047794;28;20056;-80
2023/09/03 08:20:21;;;;;;;23.17;21.17;;;17.30;99.90;;;;;;5045122;28;20048;-81
2023/09/03 08:22:47;;;;;;;26.15;24.08;;;17.40;99.90;;;;;;5046754;28;20041;-83
2023/09/03 08:25:13;;;;;;;18.17;16.50;;;17.50;99.90;;;;;;5044412;28;20048;-94
2023/09/03 08:27:40;;;;;;;13.15;11.90;;;17.50;99.90;;;;;;5043559;28;20719;-90
2023/09/03 08:30:07;;;;;;;11.13;10.02;;;17.60;99.90;;;;;;5045169;28;20105;-90
2023/09/03 08:32:32;;;;;;;12.70;11.50;;;17.60;99.90;;;;;;5049201;28;20033;-88
2023/09/03 08:34:58;;;;;;;11.02;9.90;;;17.60;99.90;;;;;;5051165;28;20039;-89
2023/09/03 08:37:26;;;;;;;11.77;9.80;;;17.70;99.90;;;;;;5051168;28;20553;-92
2023/09/03 08:39:52;;;;;;;9.52;8.52;;;17.80;99.90;;;;;;5054469;28;20095;-86
2023/09/03 08:42:20;;;;;;;9.30;7.18;;;17.80;99.90;;;;;;5053120;28;20044;-89
2023/09/03 08:44:54;;;;;;;9.75;6.82;;;17.90;99.90;;;;;;5051962;28;20075;-88
2023/09/03 08:47:20;;;;;;;8.05;6.60;;;17.90;99.90;;;;;;5056498;28;20056;-89
2023/09/03 08:49:46;;;;;;;7.97;6.70;;;18.00;99.90;;;;;;5048268;28;20060;-89
2023/09/03 08:52:13;;;;;;;7.03;5.90;;;18.10;99.90;;;;;;5057850;28;20052;-84
2023/09/03 08:54:39;;;;;;;7.53;5.97;;;18.10;99.90;;;;;;5056736;28;20095;-89
2023/09/03 08:57:05;;;;;;;8.35;5.88;;;18.20;99.90;;;;;;5061251;28;20049;-92
2023/09/03 08:59:32;;;;;;;8.18;6.25;;;18.20;99.90;;;;;;5060593;28;20040;-86
2023/09/03 09:01:59;;;;;;;6.43;4.63;;;18.20;99.90;;;;;;5062842;28;20086;-87
2023/09/03 09:04:30;;;;;;;6.70;4.75;;;18.30;99.90;;;;;;5056284;28;20055;-90
2023/09/03 09:06:58;;;;;;;6.22;4.60;;;18.30;99.90;;;;;;5058815;28;20068;-91
2023/09/03 09:09:26;;;;;;;6.10;4.70;;;18.40;99.90;;;;;;5051265;28;20041;-89
2023/09/03 09:12:31;;;;;;;6.45;5.45;;;18.50;99.90;;;;;;5046680;28;20033;-88
2023/09/03 09:15:02;;;;;;;5.70;4.93;;;18.60;99.90;;;;;;5037557;28;20041;-86
2023/09/03 09:17:31;;;;;;;6.35;5.38;;;18.60;99.90;;;;;;5052748;28;20134;-83
2023/09/03 09:19:59;;;;;;;6.13;4.40;;;18.70;99.90;;;;;;5049270;28;20484;-89
2023/09/03 09:22:25;;;;;;;8.35;4.30;;;18.80;99.90;;;;;;5049253;28;20445;-88
2023/09/03 09:24:51;;;;;;;6.27;3.80;;;18.80;99.90;;;;;;5047479;28;20140;-89
2023/09/03 09:27:19;;;;;;;6.82;4.75;;;18.80;99.90;;;;;;5054444;28;20124;-88
2023/09/03 09:29:46;;;;;;;6.38;4.30;;;18.80;99.90;;;;;;5053443;28;20029;-89
2023/09/03 09:32:20;;;;;;;6.30;4.05;;;18.80;99.90;;;;;;5060160;28;20071;-85
2023/09/03 09:34:46;;;;;;;5.97;4.20;;;18.80;99.90;;;;;;5058066;28;20050;-87
2023/09/03 09:37:13;;;;;;;4.97;4.10;;;18.80;99.90;;;;;;5060234;28;20085;-84
2023/09/03 09:39:48;;;;;;;6.57;4.28;;;18.80;99.90;;;;;;5044426;28;20079;-86
2023/09/03 09:42:21;;;;;;;6.20;5.00;;;18.90;99.90;;;;;;5040165;28;20059;-85
2023/09/03 09:44:53;;;;;;;4.40;3.97;;;19.00;99.90;;;;;;5045423;28;20111;-94
2023/09/03 09:47:20;;;;;;;6.15;4.35;;;19.10;99.90;;;;;;5047658;28;20049;-87
2023/09/03 09:49:47;;;;;;;6.13;4.28;;;19.20;99.90;;;;;;5048698;28;20048;-90
2023/09/03 09:52:14;;;;;;;6.30;4.10;;;19.30;99.90;;;;;;5038741;28;20060;-89
2023/09/03 09:54:41;;;;;;;3.47;3.05;;;19.40;99.90;;;;;;5049453;28;20052;-87
2023/09/03 09:57:11;;;;;;;6.03;3.95;;;19.40;99.90;;;;;;5048020;28;20052;-88
2023/09/03 09:59:39;;;;;;;7.75;4.93;;;19.50;99.90;;;;;;5033085;28;20120;-86
2023/09/03 10:02:15;;;;;;;5.22;3.97;;;19.60;99.90;;;;;;5048523;28;20053;-89
2023/09/03 10:04:45;;;;;;;6.90;4.65;;;19.70;99.90;;;;;;5054540;28;20036;-95
2023/09/03 10:07:12;;;;;;;7.65;4.88;;;19.70;99.90;;;;;;5051685;28;20063;-89
2023/09/03 10:09:40;;;;;;;5.70;4.30;;;19.80;99.90;;;;;;5048975;28;20095;-90
2023/09/03 10:12:07;;;;;;;5.53;3.50;;;19.90;99.90;;;;;;5052132;28;20091;-92
2023/09/03 10:14:33;;;;;;;6.32;3.50;;;19.90;99.90;;;;;;5046587;28;20099;-89
2023/09/03 10:17:08;;;;;;;5.83;3.40;;;19.80;99.90;;;;;;5048969;28;20101;-95
2023/09/03 10:19:43;;;;;;;3.63;3.20;;;19.90;99.90;;;;;;5056541;28;20125;-96
2023/09/03 10:22:14;;;;;;;4.32;3.03;;;19.80;99.90;;;;;;5050781;28;20045;-92
2023/09/03 10:24:41;;;;;;;4.90;3.42;;;19.90;99.90;;;;;;5050518;28;20140;-88
2023/09/03 10:27:12;;;;;;;5.40;2.95;;;19.80;99.90;;;;;;5048920;28;20037;-91
2023/09/03 10:29:41;;;;;;;4.05;2.00;;;19.90;99.90;;;;;;5046175;28;20120;-82
2023/09/03 10:32:10;;;;;;;3.88;2.50;;;19.90;99.90;;;;;;5044618;28;20045;-89
2023/09/03 10:34:37;;;;;;;3.83;2.50;;;20.00;99.90;;;;;;5043707;28;20085;-91
2023/09/03 10:37:06;;;;;;;3.78;2.45;;;20.10;99.90;;;;;;5049503;28;20434;-87
2023/09/03 10:39:33;;;;;;;4.35;2.40;;;20.10;99.90;;;;;;5045913;28;20071;-87
2023/09/03 10:42:20;;;;;;;5.13;2.55;;;20.20;99.90;;;;;;5047327;28;20041;-87
2023/09/03 10:44:54;;;;;;;4.68;2.40;;;20.20;99.90;;;;;;5043427;28;20106;-85
2023/09/03 10:47:20;;;;;;;3.38;2.10;;;20.30;99.90;;;;;;5040611;28;20484;-85
2023/09/03 10:49:48;;;;;;;2.30;1.88;;;20.40;99.90;;;;;;5046789;28;20057;-93
2023/09/03 10:52:30;;;;;;;3.38;2.00;;;20.40;99.90;;;;;;5043100;28;20044;-83
2023/09/03 10:55:16;;;;;;;3.20;2.10;;;20.50;99.90;;;;;;5045871;28;20424;-84
2023/09/03 10:57:44;;;;;;;5.95;2.50;;;20.60;99.90;;;;;;5047265;28;20750;-88
2023/09/03 11:00:11;;;;;;;4.25;2.72;;;20.60;99.90;;;;;;5047217;28;20098;-85
2023/09/03 11:02:38;;;;;;;4.07;2.80;;;20.70;99.90;;;;;;5049317;28;20571;-88
2023/09/03 11:05:12;;;;;;;3.33;2.38;;;20.70;99.90;;;;;;5044103;28;20510;-91
2023/09/03 11:07:41;;;;;;;3.75;2.40;;;20.80;99.90;;;;;;5047683;28;20045;-86
2023/09/03 11:10:24;;;;;;;5.25;2.50;;;20.80;99.90;;;;;;5041885;28;20082;-90
2023/09/03 11:12:52;;;;;;;4.97;2.40;;;20.80;99.90;;;;;;5041125;28;20053;-90
2023/09/03 11:15:18;;;;;;;;;;;20.90;99.90;;;;;;5043647;28;20059;-80
2023/09/03 11:17:51;;;;;;;4.97;2.00;;;20.80;99.90;;;;;;5042999;28;20425;-81
2023/09/03 11:20:36;;;;;;;3.08;1.92;;;20.90;99.90;;;;;;5037476;28;20053;-82
2023/09/03 11:23:03;;;;;;;6.05;2.53;;;20.90;99.90;;;;;;5057866;28;20124;-82
2023/09/03 11:25:37;;;;;;;3.92;2.05;;;21.00;99.90;;;;;;5037835;28;20454;-81
2023/09/03 11:28:07;;;;;;;3.65;1.65;;;21.10;99.90;;;;;;5027964;28;20095;-83
2023/09/03 11:30:34;;;;;;;2.67;1.50;;;21.10;99.90;;;;;;5045107;28;20620;-82
2023/09/03 11:33:00;;;;;;;2.30;1.80;;;21.10;99.90;;;;;;5048253;28;20041;-84
2023/09/03 11:35:26;;;;;;;2.30;1.88;;;21.10;99.90;;;;;;5040028;28;20071;-92
2023/09/03 11:37:53;;;;;;;3.03;1.80;;;21.10;99.90;;;;;;5048307;28;20049;-91
2023/09/03 11:40:23;;;;;;;;;;;21.20;99.90;;;;;;5046625;28;20055;-92
2023/09/03 11:42:50;;;;;;;3.92;2.03;;;21.10;99.90;;;;;;5045231;28;19924;-91
2023/09/03 11:45:16;;;;;;;3.08;2.25;;;21.20;99.90;;;;;;5039760;28;20056;-89
2023/09/03 11:47:51;;;;;;;4.63;2.25;;;21.20;99.90;;;;;;5044491;28;20041;-91
2023/09/03 11:50:17;;;;;;;2.60;1.80;;;21.20;99.90;;;;;;5045926;28;20045;-93
2023/09/03 11:52:49;;;;;;;3.45;1.80;;;21.30;99.90;;;;;;5048085;28;20045;-92
2023/09/03 11:55:16;;;;;;;4.60;1.92;;;21.30;99.90;;;;;;5047939;28;20060;-91
2023/09/03 11:57:44;;;;;;;2.73;1.73;;;21.30;99.90;;;;;;5049255;28;20474;-90
2023/09/03 12:00:14;;;;;;;3.03;1.98;;;21.40;99.90;;;;;;5044007;28;20052;-93
2023/09/03 12:02:42;;;;;;;2.70;1.73;;;21.40;99.90;;;;;;5043667;28;20118;-91
2023/09/03 12:05:12;;;;;;;2.95;1.80;;;21.50;99.90;;;;;;5041122;28;20088;-89
2023/09/03 12:07:38;;;;;;;;;;;21.60;99.90;;;;;;5042566;28;20075;-90
2023/09/03 12:10:05;;;;;;;3.47;1.30;;;21.50;99.90;;;;;;5044103;28;19921;-86
2023/09/03 12:12:30;;;;;;;1.55;1.40;;;21.60;99.90;;;;;;5046675;28;20051;-91
2023/09/03 12:14:56;;;;;;;2.42;1.80;;;21.70;99.90;;;;;;5054995;28;20041;-81
2023/09/03 12:17:26;;;;;;;2.50;1.70;;;21.80;99.90;;;;;;5047626;28;20718;-87
2023/09/03 12:19:52;;;;;;;3.20;1.88;;;21.80;99.90;;;;;;5048534;28;20143;-87
2023/09/03 12:22:22;;;;;;;3.00;1.67;;;21.80;99.90;;;;;;5045972;28;20024;-88
2023/09/03 12:24:49;;;;;;;4.18;1.80;;;21.90;99.90;;;;;;5048602;28;20037;-90
2023/09/03 12:27:15;;;;;;;3.58;1.95;;;21.90;99.90;;;;;;5045918;28;20041;-86
2023/09/03 12:29:41;;;;;;;3.30;1.80;;;21.90;99.90;;;;;;5048896;28;20080;-88
2023/09/03 12:32:09;;;;;;;4.63;2.00;;;21.90;99.90;;;;;;5050859;28;20045;-92
2023/09/03 12:34:37;;;;;;;3.20;1.80;;;21.90;99.90;;;;;;5046781;28;20044;-89
2023/09/03 12:37:04;;;;;;;3.42;1.80;;;22.00;99.90;;;;;;5044580;28;20045;-82
2023/09/03 12:39:31;;;;;;;2.85;1.70;;;22.00;99.90;;;;;;5049869;28;20137;-92
2023/09/03 12:41:57;;;;;;;3.17;1.58;;;22.00;99.90;;;;;;5050707;28;20094;-88
2023/09/03 12:44:24;;;;;;;2.90;1.65;;;22.10;99.90;;;;;;5040061;28;20157;-83